createdAt,value
2023-10-03T00:01:53.646Z,21.13
2023-10-03T00:06:55.322Z,21.47
2023-10-03T00:11:57.002Z,21.10
2023-10-03T00:16:59.086Z,20.05
2023-10-03T00:22:00.859Z,20.86
2023-10-03T00:27:05.812Z,21.36
2023-10-03T00:32:08.868Z,21.20
2023-10-03T00:37:12.040Z,19.87
2023-10-03T00:42:13.714Z,20.05
2023-10-03T00:47:15.735Z,20.95
2023-10-03T00:52:17.476Z,21.02
2023-10-03T00:57:19.655Z,20.95
2023-10-03T01:02:22.764Z,21.17
2023-10-03T01:07:24.464Z,21.20
2023-10-03T01:12:26.428Z,21.49
2023-10-03T01:17:31.614Z,21.64
2023-10-03T01:22:34.296Z,20.30
2023-10-03T01:27:35.962Z,20.19
2023-10-03T01:32:44.220Z,20.71
2023-10-03T01:37:46.476Z,21.07
2023-10-03T01:42:48.637Z,21.10
2023-10-03T01:47:51.061Z,21.36
2023-10-03T01:52:53.761Z,20.36
2023-10-03T01:57:55.428Z,19.81
2023-10-03T02:03:05.813Z,20.58
2023-10-03T02:08:16.629Z,21.01
2023-10-03T02:13:20.602Z,21.21
2023-10-03T02:18:22.618Z,20.06
2023-10-03T02:23:26.129Z,19.97
2023-10-03T02:28:28.784Z,20.69
2023-10-03T02:33:30.790Z,21.03
2023-10-03T02:38:37.570Z,21.03
2023-10-03T02:43:43.089Z,19.69
2023-10-03T02:48:44.748Z,19.27
2023-10-03T02:53:46.985Z,20.34
2023-10-03T02:58:48.822Z,20.95
2023-10-03T03:03:51.145Z,20.48
2023-10-03T03:08:53.245Z,19.24
2023-10-03T03:13:54.973Z,19.73
2023-10-03T03:18:56.671Z,20.58
2023-10-03T03:24:01.116Z,20.76
2023-10-03T03:29:07.475Z,19.45
2023-10-03T03:34:09.188Z,18.86
2023-10-03T03:39:17.154Z,19.88
2023-10-03T03:44:20.205Z,20.45
2023-10-03T03:49:23.907Z,20.83
2023-10-03T03:54:26.520Z,21.07
2023-10-03T03:59:28.740Z,20.56
2023-10-03T04:04:30.485Z,18.96
2023-10-03T04:09:32.732Z,18.48
2023-10-03T04:14:34.553Z,19.54
2023-10-03T04:19:36.518Z,20.09
2023-10-03T04:24:38.297Z,20.41
2023-10-03T04:29:40.007Z,20.62
2023-10-03T04:34:42.167Z,20.80
2023-10-03T04:39:44.245Z,20.97
2023-10-03T04:44:45.964Z,20.99
2023-10-03T04:49:47.698Z,20.83
2023-10-03T04:54:49.373Z,19.30
2023-10-03T04:59:51.376Z,18.88
2023-10-03T05:04:53.133Z,19.81
2023-10-03T05:09:55.119Z,20.38
2023-10-03T05:14:56.734Z,20.73
2023-10-03T05:19:59.897Z,20.09
2023-10-03T05:25:02.099Z,19.12
2023-10-03T05:30:06.108Z,20.25
2023-10-03T05:35:09.501Z,21.27
2023-10-03T05:40:19.713Z,20.79
2023-10-03T05:45:21.525Z,20.25
2023-10-03T05:50:24.524Z,21.21
2023-10-03T05:55:26.378Z,22.13
2023-10-03T06:00:28.457Z,21.76
2023-10-03T06:05:30.105Z,22.42
2023-10-03T06:10:31.716Z,23.48
2023-10-03T06:15:36.973Z,23.35
2023-10-03T06:20:39.097Z,23.25
2023-10-03T06:25:40.841Z,23.30
2023-10-03T06:30:42.766Z,23.83
2023-10-03T06:35:44.512Z,24.41
2023-10-03T06:40:47.038Z,24.72
2023-10-03T06:45:48.771Z,25.19
2023-10-03T06:50:51.688Z,25.52
2023-10-03T06:55:54.369Z,25.66
2023-10-03T07:00:56.531Z,25.61
2023-10-03T07:05:59.313Z,25.86
2023-10-03T07:11:01.870Z,26.54
2023-10-03T07:16:04.570Z,27.72
2023-10-03T07:21:06.360Z,28.79
2023-10-03T07:26:08.234Z,29.56
2023-10-03T07:31:13.401Z,30.39
2023-10-03T07:36:17.917Z,30.80
2023-10-03T07:41:20.785Z,31.27
2023-10-03T07:46:24.596Z,31.68
2023-10-03T07:51:30.671Z,32.17
2023-10-03T07:56:34.110Z,32.59
2023-10-03T08:01:57.679Z,33.05
2023-10-03T08:07:01.604Z,33.16
2023-10-03T08:12:12.302Z,33.57
2023-10-03T08:17:16.624Z,33.76
2023-10-03T08:22:20.700Z,34.07
2023-10-03T08:27:23.104Z,34.64
2023-10-03T08:32:28.335Z,34.88
2023-10-03T08:37:30.147Z,34.80
2023-10-03T08:42:35.056Z,35.20
2023-10-03T08:47:39.336Z,35.41
2023-10-03T08:52:49.719Z,35.65
2023-10-03T08:57:51.697Z,36.17
2023-10-03T09:03:09.874Z,36.40
2023-10-03T09:08:16.850Z,36.50
2023-10-03T09:13:26.831Z,36.43
2023-10-03T09:18:41.372Z,35.98
2023-10-03T09:24:27.338Z,35.58
2023-10-03T09:29:32.556Z,34.78
2023-10-03T09:34:40.809Z,33.99
2023-10-03T09:39:52.216Z,33.78
2023-10-03T09:45:00.678Z,33.27
2023-10-03T09:50:06.943Z,33.02
2023-10-03T09:55:21.722Z,33.20
2023-10-03T10:00:26.055Z,33.64
2023-10-03T10:05:29.849Z,34.22
2023-10-03T10:10:34.059Z,35.05
2023-10-03T10:16:01.749Z,35.80
2023-10-03T10:21:38.473Z,36.64
2023-10-03T10:26:40.622Z,37.61
2023-10-03T10:31:45.737Z,37.86
2023-10-03T10:37:03.159Z,36.85
2023-10-03T10:42:10.223Z,35.68
2023-10-03T10:47:14.939Z,34.91
2023-10-03T10:52:20.099Z,33.12
2023-10-03T10:57:27.391Z,31.28
2023-10-03T11:02:34.146Z,29.75
2023-10-03T11:07:37.623Z,29.04
2023-10-03T11:12:39.356Z,29.74
2023-10-03T11:17:48.985Z,30.98
2023-10-03T11:22:50.837Z,30.91
2023-10-03T11:27:52.581Z,31.13
2023-10-03T11:33:02.044Z,31.29
2023-10-03T11:38:07.238Z,31.53
2023-10-03T11:43:08.907Z,32.15
2023-10-03T11:48:19.825Z,32.68
2023-10-03T11:53:22.398Z,32.28
2023-10-03T11:58:24.192Z,32.13
2023-10-03T12:03:25.843Z,32.29
2023-10-03T12:08:28.656Z,32.65
2023-10-03T12:13:30.533Z,32.58
2023-10-03T12:18:32.322Z,32.78
2023-10-03T12:23:35.741Z,33.68
2023-10-03T12:28:37.447Z,34.04
2023-10-03T12:33:39.192Z,33.83
2023-10-03T12:38:40.922Z,33.25
2023-10-03T12:43:47.040Z,31.79
2023-10-03T12:48:48.838Z,30.37
2023-10-03T12:53:52.963Z,29.16
2023-10-03T12:58:57.906Z,28.16
2023-10-03T13:03:59.967Z,27.43
2023-10-03T13:09:01.892Z,26.80
2023-10-03T13:14:04.929Z,26.30
2023-10-03T13:19:08.168Z,26.08
2023-10-03T13:24:10.605Z,25.95
2023-10-03T13:29:12.715Z,25.85
2023-10-03T13:34:15.081Z,25.73
2023-10-03T13:39:19.829Z,25.70
2023-10-03T13:44:21.695Z,25.66
2023-10-03T13:49:25.133Z,25.58
2023-10-03T13:54:31.090Z,25.48
2023-10-03T13:59:33.306Z,25.45
2023-10-03T14:04:37.202Z,25.42
2023-10-03T14:09:40.103Z,25.47
2023-10-03T14:14:43.070Z,25.52
2023-10-03T14:19:45.000Z,25.52
2023-10-03T14:24:47.253Z,25.47
2023-10-03T14:29:48.860Z,25.39
2023-10-03T14:34:51.965Z,25.36
2023-10-03T14:39:53.645Z,25.34
2023-10-03T14:44:55.341Z,25.33
2023-10-03T14:49:57.911Z,25.33
2023-10-03T14:54:59.905Z,25.32
2023-10-03T15:00:02.264Z,25.30
2023-10-03T15:05:06.847Z,25.25
2023-10-03T15:10:10.049Z,25.20
2023-10-03T15:15:12.823Z,25.17
2023-10-03T15:20:17.457Z,25.11
2023-10-03T15:25:19.582Z,25.05
2023-10-03T15:30:21.323Z,25.01
2023-10-03T15:35:23.448Z,24.96
2023-10-03T15:40:28.291Z,24.89
2023-10-03T15:45:34.391Z,24.82
2023-10-03T15:50:37.079Z,24.78
2023-10-03T15:55:39.123Z,24.74
2023-10-03T16:00:41.566Z,24.70
2023-10-03T16:05:43.271Z,24.66
2023-10-03T16:10:45.004Z,24.63
2023-10-03T16:15:48.085Z,24.60
2023-10-03T16:20:50.014Z,24.56
2023-10-03T16:25:51.795Z,24.51
2023-10-03T16:30:53.676Z,24.46
2023-10-03T16:35:57.326Z,24.42
2023-10-03T16:40:59.061Z,24.36
2023-10-03T16:46:04.042Z,24.31
2023-10-03T16:51:05.852Z,24.24
2023-10-03T16:56:08.483Z,24.17
2023-10-03T17:01:10.287Z,24.07
2023-10-03T17:06:12.241Z,23.97
2023-10-03T17:11:14.529Z,23.87
2023-10-03T17:16:16.410Z,23.77
2023-10-03T17:21:21.695Z,23.67
2023-10-03T17:26:23.857Z,23.59
2023-10-03T17:31:25.909Z,23.51
2023-10-03T17:36:27.899Z,23.43
2023-10-03T17:41:29.606Z,23.34
2023-10-03T17:46:32.594Z,23.27
2023-10-03T17:51:35.320Z,23.20
2023-10-03T17:56:37.090Z,23.15
2023-10-03T18:01:38.842Z,23.09
2023-10-03T18:06:40.681Z,23.00
2023-10-03T18:11:42.527Z,22.93
2023-10-03T18:16:44.508Z,22.83
2023-10-03T18:21:46.742Z,22.75
2023-10-03T18:26:49.711Z,22.69
2023-10-03T18:31:51.386Z,22.62
2023-10-03T18:36:53.058Z,22.53
2023-10-03T18:41:54.778Z,22.44
2023-10-03T18:46:56.674Z,22.36
2023-10-03T18:51:58.493Z,22.29
2023-10-03T18:57:00.638Z,22.32
2023-10-03T19:02:02.403Z,22.36
2023-10-03T19:07:05.016Z,22.37
2023-10-03T19:12:07.164Z,22.35
2023-10-03T19:17:09.022Z,22.31
2023-10-03T19:22:11.413Z,22.25
2023-10-03T19:27:13.109Z,22.14
2023-10-03T19:32:18.118Z,22.06
2023-10-03T19:37:19.870Z,21.99
2023-10-03T19:42:22.636Z,21.93
2023-10-03T19:47:24.946Z,21.88
2023-10-03T19:52:26.590Z,21.86
2023-10-03T19:57:28.346Z,21.85
2023-10-03T20:02:29.999Z,21.85
2023-10-03T20:07:31.717Z,21.57
2023-10-03T20:12:35.444Z,20.90
2023-10-03T20:17:37.017Z,20.97
2023-10-03T20:22:42.735Z,21.88
2023-10-03T20:27:45.181Z,21.04
2023-10-03T20:32:46.897Z,20.92
2023-10-03T20:37:48.835Z,21.95
2023-10-03T20:42:50.921Z,21.20
2023-10-03T20:47:53.102Z,20.96
2023-10-03T20:52:55.002Z,22.14
2023-10-03T20:57:56.961Z,22.12
2023-10-03T21:02:58.908Z,21.01
2023-10-03T21:08:02.830Z,21.01
2023-10-03T21:13:04.661Z,20.72
2023-10-03T21:18:09.195Z,20.44
2023-10-03T21:23:10.889Z,20.09
2023-10-03T21:28:13.171Z,19.92
2023-10-03T21:33:14.909Z,19.72
2023-10-03T21:38:17.664Z,19.45
2023-10-03T21:43:19.297Z,19.37
2023-10-03T21:48:21.869Z,19.42
2023-10-03T21:53:23.608Z,19.47
2023-10-03T21:58:25.286Z,19.59
2023-10-03T22:03:28.190Z,19.60
2023-10-03T22:08:32.344Z,19.50
2023-10-03T22:13:34.094Z,19.36
2023-10-03T22:18:38.470Z,19.37
2023-10-03T22:23:40.304Z,19.29
2023-10-03T22:28:41.983Z,19.28
2023-10-03T22:33:44.087Z,19.31
2023-10-03T22:38:47.078Z,19.32
2023-10-03T22:43:49.166Z,19.39
2023-10-03T22:48:51.311Z,19.40
2023-10-03T22:53:53.166Z,19.30
2023-10-03T22:58:55.150Z,19.06
2023-10-03T23:03:56.848Z,18.80
2023-10-03T23:08:58.561Z,18.55
2023-10-03T23:14:00.852Z,18.77
2023-10-03T23:19:03.831Z,18.79
2023-10-03T23:24:10.509Z,18.86
2023-10-03T23:29:12.433Z,18.91
2023-10-03T23:34:16.507Z,19.10
2023-10-03T23:39:19.944Z,18.89
2023-10-03T23:44:21.664Z,18.96
2023-10-03T23:49:23.595Z,18.64
2023-10-03T23:54:25.247Z,18.53
2023-10-03T23:59:27.204Z,18.33
